Wainscott, New York
Current Conditions -  °F | °C
As of 3:53 PM on Tuesday 21 Oct 2014 (Local Time) from KFOK Reporting Station
Scattered Clouds Scattered Clouds  
Wind Chill: 65°   Ceiling: Unl
Heat Index: 65°   Visibility: 10mi
Dew Point: 54°   Wind: 6mph
Humidity: 68%   Direction: 110°ESE
Pressure: 29.87"   Gusts: NA
Location:  40.94°N, 72.24°W
Report Text: KFOK 211953Z 11005KT 10SM FEW032 SCT060 18/12 A2987 RMK AO2 SLP115 T01830122
Loading
Personal Weather Stations






























Interactive Weather Map
Tropical Storm Tracking
New forecast layout! Learn more

10-Day Weather Forecast

Advertisements
Track Severe Weather on mobile